KAL2901 RKSI-OMDB
Flight info
| Callsign | KAL2901 |
|---|---|
| Flight time | N/A |
| Altitude | 34000 |
| Route | BOPTA2Y BOPTA Z51 BEDES Y711 PONIK A593 LAMEN/K0935F280 A593 AKARA/K0930S0840 A593 PUD/K0920S1040 A593 PK R343 MADUK W51 LEGIV W164 ADGOL W50 XSH W80 IDGAG A581 QNX W136 XISLI A581 SGM A599 GMA/K0915S1100 A599 LINSO/N0495F360 A599 CTG B465 CEA A791 BPL L639 NINIM/N0493F380 L639 RASKI L301 RAGMA N571 VUSET A454 PASOV B540 KUPMA/N0474F240 B540 MIVEK P574 IMPED IMPED3C |
| Aircraft | B77W/H-SDE1E2E3FGHIJ2J3J4J5M1RWXY/LB1D1 |
Departure
| Time | 2026-05-01 10:53 |
|---|---|
| Airport | Incheon International Airport (RKSI) |
Arrival
| Time | N/A |
|---|---|
| Airport | Dubai International Airport (OMDB) |
| Time | Latitude | Longitude | Altitude | Speed | Heading |
|---|---|---|---|---|---|
| 2026-05-01 10:16 | 37.45385 | 126.44279 | 27 ft | 0 kts | 323° |
| 2026-05-01 10:33 | 37.45360 | 126.44308 | 25 ft | 4 kts | 305° |
| 2026-05-01 10:33 | 37.45347 | 126.44370 | 25 ft | 4 kts | 256° |
| 2026-05-01 10:34 | 37.45356 | 126.44397 | 24 ft | 1 kts | 235° |
| 2026-05-01 10:36 | 37.45355 | 126.44396 | 24 ft | 1 kts | 235° |
| 2026-05-01 10:36 | 37.45338 | 126.44365 | 24 ft | 8 kts | 235° |
| 2026-05-01 10:37 | 37.45296 | 126.44288 | 20 ft | 13 kts | 236° |
| 2026-05-01 10:37 | 37.45112 | 126.44108 | 27 ft | 19 kts | 208° |
| 2026-05-01 10:37 | 37.45039 | 126.44028 | 27 ft | 14 kts | 202° |
| 2026-05-01 10:38 | 37.44938 | 126.44064 | 27 ft | 18 kts | 147° |
| 2026-05-01 10:38 | 37.44816 | 126.44169 | 27 ft | 24 kts | 145° |
| 2026-05-01 10:38 | 37.44711 | 126.44264 | 27 ft | 11 kts | 143° |
| 2026-05-01 10:38 | 37.44678 | 126.44294 | 27 ft | 0 kts | 143° |
| 2026-05-01 10:39 | 37.44676 | 126.44296 | 27 ft | 5 kts | 143° |
| 2026-05-01 10:39 | 37.44612 | 126.44355 | 27 ft | 0 kts | 144° |
| 2026-05-01 10:40 | 37.44612 | 126.44356 | 27 ft | 0 kts | 144° |
| 2026-05-01 10:40 | 37.44601 | 126.44366 | 27 ft | 7 kts | 144° |
| 2026-05-01 10:40 | 37.44544 | 126.44409 | 27 ft | 0 kts | 162° |
| 2026-05-01 10:41 | 37.44543 | 126.44410 | 27 ft | 0 kts | 163° |
| 2026-05-01 10:41 | 37.44519 | 126.44407 | 27 ft | 7 kts | 194° |
| 2026-05-01 10:42 | 37.44455 | 126.44341 | 27 ft | 14 kts | 230° |
| 2026-05-01 10:42 | 37.44451 | 126.44336 | 27 ft | 0 kts | 231° |
| 2026-05-01 10:46 | 37.44439 | 126.44317 | 26 ft | 8 kts | 232° |
| 2026-05-01 10:47 | 37.44428 | 126.44298 | 30 ft | 0 kts | 234° |
| 2026-05-01 10:49 | 37.44418 | 126.44280 | 27 ft | 8 kts | 233° |
| 2026-05-01 10:49 | 37.44391 | 126.44175 | 29 ft | 18 kts | 277° |
| 2026-05-01 10:50 | 37.44443 | 126.44082 | 28 ft | 0 kts | 323° |
| 2026-05-01 10:52 | 37.44444 | 126.44080 | 29 ft | 3 kts | 323° |
| 2026-05-01 10:52 | 37.44667 | 126.43881 | 27 ft | 87 kts | 324° |
| 2026-05-01 10:52 | 37.45429 | 126.43197 | 30 ft | 181 kts | 322° |
| 2026-05-01 10:53 | 37.46600 | 126.42050 | 517 ft | 228 kts | 318° |
| 2026-05-01 10:53 | 37.47803 | 126.40897 | 2352 ft | 206 kts | 317° |
| 2026-05-01 10:53 | 37.48796 | 126.39609 | 3280 ft | 211 kts | 308° |
| 2026-05-01 10:53 | 37.49745 | 126.38071 | 3621 ft | 229 kts | 302° |
| 2026-05-01 10:54 | 37.50291 | 126.36180 | 4108 ft | 237 kts | 281° |
| 2026-05-01 10:54 | 37.50464 | 126.34060 | 4744 ft | 246 kts | 275° |
| 2026-05-01 10:54 | 37.50521 | 126.31866 | 5369 ft | 255 kts | 274° |
| 2026-05-01 10:54 | 37.50566 | 126.29611 | 6111 ft | 259 kts | 275° |
| 2026-05-01 10:55 | 37.50614 | 126.27335 | 6893 ft | 261 kts | 275° |
| 2026-05-01 10:55 | 37.50665 | 126.25057 | 7629 ft | 264 kts | 275° |
| 2026-05-01 10:55 | 37.50719 | 126.22720 | 8375 ft | 267 kts | 275° |
| 2026-05-01 10:55 | 37.50597 | 126.20399 | 9001 ft | 275 kts | 257° |
| 2026-05-01 10:56 | 37.49622 | 126.18261 | 9624 ft | 291 kts | 229° |
| 2026-05-01 10:56 | 37.47926 | 126.16804 | 10264 ft | 301 kts | 206° |
| 2026-05-01 10:56 | 37.45928 | 126.15867 | 10568 ft | 318 kts | 204° |
| 2026-05-01 10:56 | 37.43747 | 126.14930 | 10724 ft | 341 kts | 197° |
| 2026-05-01 10:57 | 37.41289 | 126.14826 | 10879 ft | 371 kts | 169° |
| 2026-05-01 10:57 | 37.38890 | 126.16151 | 11099 ft | 393 kts | 141° |
| 2026-05-01 10:57 | 37.37001 | 126.18660 | 11521 ft | 398 kts | 126° |
| 2026-05-01 10:57 | 37.35286 | 126.21471 | 12021 ft | 409 kts | 127° |
| 2026-05-01 10:58 | 37.33443 | 126.24254 | 12805 ft | 414 kts | 129° |
| 2026-05-01 10:58 | 37.31554 | 126.26957 | 13641 ft | 416 kts | 131° |
| 2026-05-01 10:58 | 37.29407 | 126.29452 | 14259 ft | 424 kts | 142° |
| 2026-05-01 10:58 | 37.26928 | 126.31528 | 14889 ft | 430 kts | 150° |
| 2026-05-01 10:59 | 37.24274 | 126.33221 | 14909 ft | 435 kts | 156° |
| 2026-05-01 10:59 | 37.21503 | 126.34750 | 14932 ft | 431 kts | 157° |
| 2026-05-01 10:59 | 37.18741 | 126.36267 | 15043 ft | 434 kts | 157° |
| 2026-05-01 10:59 | 37.15994 | 126.37786 | 15723 ft | 438 kts | 157° |
| 2026-05-01 11:00 | 37.13186 | 126.39349 | 16497 ft | 440 kts | 157° |
| 2026-05-01 11:00 | 37.10375 | 126.40921 | 17199 ft | 445 kts | 157° |
| 2026-05-01 11:00 | 37.07521 | 126.42525 | 17844 ft | 451 kts | 157° |
| 2026-05-01 11:00 | 37.04669 | 126.44130 | 18432 ft | 457 kts | 157° |
| 2026-05-01 11:01 | 37.01737 | 126.45780 | 18902 ft | 463 kts | 157° |
| 2026-05-01 11:01 | 36.98786 | 126.47439 | 18901 ft | 464 kts | 157° |
| 2026-05-01 11:01 | 36.95827 | 126.49101 | 19070 ft | 468 kts | 157° |
| 2026-05-01 11:01 | 36.92870 | 126.50762 | 19605 ft | 473 kts | 157° |
| 2026-05-01 11:02 | 36.89843 | 126.52459 | 20153 ft | 478 kts | 158° |
| 2026-05-01 11:02 | 36.86781 | 126.54174 | 20738 ft | 482 kts | 158° |
| 2026-05-01 11:02 | 36.83738 | 126.55878 | 21238 ft | 487 kts | 158° |
| 2026-05-01 11:02 | 36.80622 | 126.57621 | 21713 ft | 493 kts | 158° |
| 2026-05-01 11:03 | 36.77464 | 126.59385 | 22206 ft | 499 kts | 158° |
| 2026-05-01 11:03 | 36.74264 | 126.61135 | 22705 ft | 503 kts | 161° |
| 2026-05-01 11:03 | 36.70987 | 126.62580 | 23184 ft | 505 kts | 167° |
| 2026-05-01 11:03 | 36.67572 | 126.63708 | 23633 ft | 509 kts | 169° |
| 2026-05-01 11:04 | 36.64110 | 126.64814 | 24064 ft | 513 kts | 169° |
| 2026-05-01 11:04 | 36.60679 | 126.65923 | 24484 ft | 516 kts | 169° |
| 2026-05-01 11:04 | 36.57188 | 126.67072 | 24925 ft | 519 kts | 169° |
| 2026-05-01 11:04 | 36.53669 | 126.68245 | 25360 ft | 522 kts | 169° |
| 2026-05-01 11:05 | 36.50177 | 126.69418 | 25772 ft | 526 kts | 170° |
| 2026-05-01 11:05 | 36.46623 | 126.70613 | 26197 ft | 529 kts | 170° |
| 2026-05-01 11:05 | 36.43038 | 126.71815 | 26619 ft | 531 kts | 170° |
| 2026-05-01 11:05 | 36.39497 | 126.72999 | 26992 ft | 534 kts | 171° |
| 2026-05-01 11:06 | 36.35889 | 126.74205 | 27418 ft | 536 kts | 171° |
| 2026-05-01 11:06 | 36.32278 | 126.75418 | 27797 ft | 540 kts | 171° |
| 2026-05-01 11:06 | 36.28626 | 126.76650 | 28080 ft | 545 kts | 171° |
| 2026-05-01 11:07 | 36.21250 | 126.79128 | 28745 ft | 549 kts | 173° |
| 2026-05-01 11:07 | 36.17549 | 126.80059 | 29055 ft | 544 kts | 179° |
| 2026-05-01 11:07 | 36.13786 | 126.80535 | 29446 ft | 538 kts | 185° |
| 2026-05-01 11:07 | 36.10087 | 126.80663 | 29796 ft | 534 kts | 189° |
| 2026-05-01 11:08 | 36.06385 | 126.80380 | 30144 ft | 527 kts | 195° |
| 2026-05-01 11:08 | 36.02789 | 126.79921 | 30513 ft | 525 kts | 195° |
| 2026-05-01 11:08 | 35.95531 | 126.79059 | 31290 ft | 522 kts | 194° |
| 2026-05-01 11:09 | 35.91918 | 126.78671 | 31729 ft | 519 kts | 195° |
| 2026-05-01 11:09 | 35.88309 | 126.78286 | 32061 ft | 518 kts | 195° |
| 2026-05-01 11:09 | 35.84710 | 126.77899 | 32335 ft | 519 kts | 195° |
| 2026-05-01 11:10 | 35.77547 | 126.77126 | 32914 ft | 517 kts | 195° |
| 2026-05-01 11:10 | 35.73952 | 126.76741 | 33299 ft | 515 kts | 195° |
| 2026-05-01 11:10 | 35.70375 | 126.76357 | 33617 ft | 514 kts | 196° |
| 2026-05-01 11:10 | 35.66852 | 126.75978 | 33865 ft | 514 kts | 196° |
| 2026-05-01 11:11 | 35.59670 | 126.75200 | 33977 ft | 519 kts | 196° |
| 2026-05-01 11:11 | 35.52511 | 126.74440 | 33963 ft | 509 kts | 195° |
| 2026-05-01 11:12 | 35.45494 | 126.73693 | 33985 ft | 507 kts | 196° |
| 2026-05-01 11:12 | 35.38444 | 126.72940 | 33965 ft | 508 kts | 195° |
| 2026-05-01 11:13 | 35.31420 | 126.72195 | 33977 ft | 508 kts | 195° |
| 2026-05-01 11:13 | 35.24392 | 126.71454 | 33983 ft | 508 kts | 195° |
| 2026-05-01 11:14 | 35.17315 | 126.70707 | 33967 ft | 509 kts | 195° |
| 2026-05-01 11:14 | 35.10261 | 126.69963 | 33981 ft | 509 kts | 195° |
| 2026-05-01 11:15 | 35.03217 | 126.69218 | 33986 ft | 510 kts | 195° |
| 2026-05-01 11:15 | 34.96163 | 126.68472 | 33984 ft | 510 kts | 195° |
| 2026-05-01 11:16 | 34.89105 | 126.67727 | 33987 ft | 510 kts | 195° |
| 2026-05-01 11:16 | 34.82027 | 126.66981 | 33984 ft | 510 kts | 195° |
| 2026-05-01 11:17 | 34.74976 | 126.66241 | 33983 ft | 510 kts | 195° |
| 2026-05-01 11:17 | 34.67876 | 126.65496 | 33986 ft | 509 kts | 195° |
| 2026-05-01 11:18 | 34.60837 | 126.64757 | 34001 ft | 509 kts | 195° |
| 2026-05-01 11:18 | 34.53792 | 126.64020 | 33994 ft | 508 kts | 194° |
| 2026-05-01 11:19 | 34.46770 | 126.63287 | 33993 ft | 508 kts | 194° |
| 2026-05-01 11:19 | 34.39717 | 126.62548 | 33974 ft | 508 kts | 194° |
| 2026-05-01 11:20 | 34.32653 | 126.61784 | 33996 ft | 508 kts | 195° |
| 2026-05-01 11:20 | 34.25618 | 126.61023 | 34004 ft | 508 kts | 195° |
| 2026-05-01 11:21 | 34.18581 | 126.60280 | 33982 ft | 508 kts | 194° |
| 2026-05-01 11:21 | 34.11516 | 126.59548 | 34011 ft | 508 kts | 194° |
| 2026-05-01 11:22 | 34.04502 | 126.58819 | 34017 ft | 508 kts | 194° |
| 2026-05-01 11:22 | 33.97461 | 126.58087 | 34002 ft | 508 kts | 194° |
| 2026-05-01 11:23 | 33.90430 | 126.57356 | 34021 ft | 508 kts | 194° |
| 2026-05-01 11:23 | 33.83466 | 126.56200 | 34024 ft | 497 kts | 202° |
| 2026-05-01 11:24 | 33.77015 | 126.53718 | 34025 ft | 485 kts | 210° |
| 2026-05-01 11:25 | 33.67528 | 126.49496 | 34019 ft | 485 kts | 209° |
| 2026-05-01 11:25 | 33.57984 | 126.45359 | 34013 ft | 484 kts | 209° |
| 2026-05-01 11:26 | 33.48505 | 126.41262 | 34029 ft | 484 kts | 209° |
| 2026-05-01 11:27 | 33.42167 | 126.38526 | 33989 ft | 484 kts | 209° |
| 2026-05-01 11:27 | 33.35776 | 126.35786 | 34037 ft | 487 kts | 209° |
| 2026-05-01 11:28 | 33.29391 | 126.33055 | 34038 ft | 489 kts | 209° |
| 2026-05-01 11:28 | 33.22973 | 126.30313 | 34017 ft | 491 kts | 208° |
| 2026-05-01 11:29 | 33.13304 | 126.26190 | 34044 ft | 492 kts | 208° |
| 2026-05-01 11:30 | 33.03640 | 126.22077 | 34044 ft | 492 kts | 208° |
| 2026-05-01 11:30 | 32.97217 | 126.19344 | 34036 ft | 491 kts | 208° |
| 2026-05-01 11:31 | 32.90800 | 126.16587 | 34045 ft | 489 kts | 208° |
| 2026-05-01 11:31 | 32.84374 | 126.13826 | 34027 ft | 488 kts | 208° |
| 2026-05-01 11:32 | 32.78006 | 126.11097 | 34038 ft | 487 kts | 208° |
| 2026-05-01 11:32 | 32.71661 | 126.08383 | 34046 ft | 487 kts | 208° |
| 2026-05-01 11:33 | 32.65304 | 126.05668 | 34036 ft | 486 kts | 208° |
| 2026-05-01 11:33 | 32.58913 | 126.02945 | 34051 ft | 486 kts | 208° |
| 2026-05-01 11:34 | 32.52558 | 126.00239 | 34050 ft | 486 kts | 208° |
| 2026-05-01 11:34 | 32.46202 | 125.97537 | 34036 ft | 485 kts | 208° |
| 2026-05-01 11:35 | 32.39864 | 125.94853 | 34053 ft | 485 kts | 208° |
| 2026-05-01 11:35 | 32.34563 | 125.92611 | 34056 ft | 484 kts | 208° |
| 2026-05-01 11:36 | 32.28241 | 125.89939 | 34033 ft | 484 kts | 207° |
| 2026-05-01 11:36 | 32.21875 | 125.87252 | 34059 ft | 484 kts | 208° |
| 2026-05-01 11:37 | 32.15552 | 125.84587 | 34067 ft | 484 kts | 207° |
| 2026-05-01 11:37 | 32.09176 | 125.81903 | 34065 ft | 485 kts | 207° |
| 2026-05-01 11:38 | 32.03186 | 125.78677 | 34079 ft | 459 kts | 227° |
| 2026-05-01 11:38 | 32.01057 | 125.76029 | 34077 ft | 445 kts | 241° |
| 2026-05-01 11:38 | 31.99473 | 125.72901 | 34067 ft | 440 kts | 251° |
| 2026-05-01 11:39 | 31.97772 | 125.66072 | 34060 ft | 437 kts | 260° |
| 2026-05-01 11:39 | 31.96294 | 125.59084 | 34072 ft | 442 kts | 260° |
| 2026-05-01 11:40 | 31.94760 | 125.52067 | 34058 ft | 445 kts | 259° |
| 2026-05-01 11:40 | 31.93186 | 125.45017 | 34073 ft | 445 kts | 259° |
| 2026-05-01 11:41 | 31.91601 | 125.37975 | 34069 ft | 443 kts | 259° |
| 2026-05-01 11:41 | 31.90022 | 125.30966 | 34068 ft | 441 kts | 259° |
| 2026-05-01 11:42 | 31.88453 | 125.24021 | 34062 ft | 439 kts | 259° |
| 2026-05-01 11:42 | 31.86889 | 125.17107 | 34073 ft | 437 kts | 259° |
| 2026-05-01 11:43 | 31.85325 | 125.10213 | 34058 ft | 438 kts | 259° |
| 2026-05-01 11:43 | 31.83745 | 125.03264 | 34076 ft | 439 kts | 259° |
| 2026-05-01 11:44 | 31.81423 | 124.92818 | 34079 ft | 442 kts | 259° |
| 2026-05-01 11:44 | 31.79915 | 124.85790 | 34080 ft | 444 kts | 259° |
| 2026-05-01 11:45 | 31.78400 | 124.78769 | 34079 ft | 445 kts | 259° |
| 2026-05-01 11:45 | 31.76864 | 124.71707 | 34078 ft | 445 kts | 259° |
| 2026-05-01 11:46 | 31.75328 | 124.64675 | 34067 ft | 445 kts | 258° |
| 2026-05-01 11:46 | 31.73789 | 124.57655 | 34080 ft | 445 kts | 258° |
| 2026-05-01 11:47 | 31.72238 | 124.50591 | 34083 ft | 445 kts | 258° |
| 2026-05-01 11:47 | 31.70696 | 124.43589 | 34078 ft | 445 kts | 258° |
| 2026-05-01 11:48 | 31.69134 | 124.36519 | 34078 ft | 445 kts | 258° |
| 2026-05-01 11:48 | 31.67582 | 124.29511 | 34083 ft | 445 kts | 258° |
| 2026-05-01 11:49 | 31.66024 | 124.22497 | 34082 ft | 445 kts | 258° |
| 2026-05-01 11:49 | 31.64463 | 124.15485 | 34081 ft | 445 kts | 258° |
| 2026-05-01 11:50 | 31.62886 | 124.08422 | 34083 ft | 446 kts | 258° |
| 2026-05-01 11:50 | 31.61311 | 124.01386 | 34081 ft | 446 kts | 258° |
| 2026-05-01 11:51 | 31.59755 | 123.94354 | 34079 ft | 446 kts | 258° |
| 2026-05-01 11:51 | 31.58215 | 123.87281 | 34084 ft | 446 kts | 258° |
| 2026-05-01 11:52 | 31.56680 | 123.80257 | 34083 ft | 446 kts | 258° |
| 2026-05-01 11:52 | 31.55136 | 123.73229 | 34070 ft | 446 kts | 258° |
| 2026-05-01 11:53 | 31.53576 | 123.66151 | 34082 ft | 446 kts | 258° |
| 2026-05-01 11:53 | 31.52020 | 123.59115 | 34083 ft | 446 kts | 258° |
| 2026-05-01 11:54 | 31.50464 | 123.52090 | 34070 ft | 447 kts | 258° |
| 2026-05-01 11:54 | 31.48987 | 123.45051 | 34068 ft | 446 kts | 260° |
| 2026-05-01 11:55 | 31.47672 | 123.37930 | 34057 ft | 446 kts | 260° |
| 2026-05-01 11:55 | 31.46358 | 123.30830 | 34073 ft | 446 kts | 260° |
| 2026-05-01 11:56 | 31.45018 | 123.23742 | 34079 ft | 447 kts | 260° |
| 2026-05-01 11:56 | 31.43655 | 123.16614 | 34078 ft | 447 kts | 260° |
| 2026-05-01 11:57 | 31.42294 | 123.09524 | 34074 ft | 448 kts | 260° |
| 2026-05-01 11:57 | 31.40923 | 123.02402 | 34075 ft | 449 kts | 260° |
| 2026-05-01 11:58 | 31.39550 | 122.95282 | 34080 ft | 449 kts | 260° |
| 2026-05-01 11:59 | 31.37476 | 122.84575 | 34065 ft | 450 kts | 260° |
| 2026-05-01 11:59 | 31.36090 | 122.77449 | 34076 ft | 451 kts | 260° |
| 2026-05-01 12:00 | 31.34032 | 122.66687 | 34076 ft | 452 kts | 260° |
| 2026-05-01 12:01 | 31.31978 | 122.55936 | 34075 ft | 453 kts | 260° |
| 2026-05-01 12:01 | 31.30591 | 122.48721 | 34074 ft | 453 kts | 260° |
| 2026-05-01 12:02 | 31.29212 | 122.41546 | 34073 ft | 453 kts | 260° |
| 2026-05-01 12:02 | 31.27856 | 122.34329 | 34069 ft | 453 kts | 261° |
| 2026-05-01 12:03 | 31.26513 | 122.27162 | 34074 ft | 453 kts | 260° |
| 2026-05-01 12:03 | 31.25151 | 122.19938 | 34076 ft | 453 kts | 260° |
| 2026-05-01 12:04 | 31.23792 | 122.12766 | 34071 ft | 453 kts | 260° |
| 2026-05-01 12:04 | 31.22424 | 122.05571 | 34067 ft | 453 kts | 260° |
| 2026-05-01 12:05 | 31.21058 | 121.98408 | 34073 ft | 453 kts | 260° |
| 2026-05-01 12:05 | 31.18996 | 121.87635 | 34037 ft | 453 kts | 260° |
| 2026-05-01 12:06 | 31.17999 | 121.80427 | 34029 ft | 447 kts | 271° |
| 2026-05-01 12:06 | 31.18459 | 121.73220 | 34019 ft | 446 kts | 281° |
| 2026-05-01 12:07 | 31.20095 | 121.66220 | 34023 ft | 446 kts | 287° |
| 2026-05-01 12:07 | 31.21865 | 121.59272 | 34024 ft | 447 kts | 287° |
| 2026-05-01 12:08 | 31.23592 | 121.52310 | 34023 ft | 447 kts | 286° |
| 2026-05-01 12:08 | 31.25297 | 121.45335 | 34020 ft | 448 kts | 286° |
| 2026-05-01 12:09 | 31.27003 | 121.38334 | 34018 ft | 447 kts | 286° |
| 2026-05-01 12:09 | 31.28790 | 121.31331 | 34019 ft | 447 kts | 290° |
| 2026-05-01 12:10 | 31.32024 | 121.21131 | 34023 ft | 446 kts | 290° |
| 2026-05-01 12:11 | 31.35225 | 121.10929 | 34010 ft | 445 kts | 290° |
| 2026-05-01 12:11 | 31.37306 | 121.04120 | 34011 ft | 445 kts | 289° |
| 2026-05-01 12:12 | 31.39355 | 120.97310 | 34005 ft | 445 kts | 289° |
| 2026-05-01 12:12 | 31.41410 | 120.90481 | 33999 ft | 444 kts | 289° |
| 2026-05-01 12:13 | 31.43471 | 120.83634 | 34000 ft | 444 kts | 289° |
| 2026-05-01 12:13 | 31.45519 | 120.76816 | 34002 ft | 445 kts | 289° |
| 2026-05-01 12:14 | 31.47567 | 120.69986 | 34000 ft | 445 kts | 289° |
| 2026-05-01 12:14 | 31.49610 | 120.63155 | 34000 ft | 445 kts | 289° |
| 2026-05-01 12:15 | 31.51647 | 120.56330 | 33997 ft | 445 kts | 289° |
| 2026-05-01 12:15 | 31.53692 | 120.49462 | 34003 ft | 445 kts | 289° |
| 2026-05-01 12:16 | 31.55725 | 120.42619 | 33998 ft | 445 kts | 289° |
| 2026-05-01 12:16 | 31.57747 | 120.35724 | 33995 ft | 445 kts | 286° |
| 2026-05-01 12:17 | 31.59027 | 120.28646 | 34005 ft | 446 kts | 278° |
| 2026-05-01 12:17 | 31.59468 | 120.21361 | 34002 ft | 447 kts | 274° |
| 2026-05-01 12:18 | 31.59796 | 120.14096 | 33993 ft | 447 kts | 274° |
| 2026-05-01 12:18 | 31.60140 | 120.06816 | 33988 ft | 447 kts | 274° |
| 2026-05-01 12:19 | 31.60489 | 119.99566 | 33994 ft | 447 kts | 274° |
| 2026-05-01 12:19 | 31.60838 | 119.92292 | 33989 ft | 446 kts | 274° |
| 2026-05-01 12:20 | 31.61181 | 119.85032 | 33992 ft | 446 kts | 274° |
| 2026-05-01 12:20 | 31.61463 | 119.78975 | 33983 ft | 446 kts | 274° |
| 2026-05-01 12:21 | 31.61798 | 119.71726 | 33988 ft | 446 kts | 274° |
| 2026-05-01 12:21 | 31.62193 | 119.63247 | 33987 ft | 446 kts | 274° |
| 2026-05-01 12:22 | 31.62493 | 119.57166 | 33984 ft | 446 kts | 274° |
| 2026-05-01 12:22 | 31.62846 | 119.49932 | 33981 ft | 447 kts | 274° |
| 2026-05-01 12:23 | 31.63195 | 119.42658 | 33975 ft | 447 kts | 274° |
| 2026-05-01 12:23 | 31.63540 | 119.35346 | 33979 ft | 448 kts | 274° |
| 2026-05-01 12:24 | 31.63878 | 119.28047 | 33969 ft | 449 kts | 274° |
| 2026-05-01 12:24 | 31.64212 | 119.20764 | 33974 ft | 449 kts | 274° |
| 2026-05-01 12:25 | 31.64720 | 119.09770 | 33980 ft | 450 kts | 274° |
| 2026-05-01 12:26 | 31.65084 | 119.02427 | 33968 ft | 450 kts | 275° |
| 2026-05-01 12:26 | 31.65955 | 118.91498 | 33967 ft | 449 kts | 276° |
| 2026-05-01 12:27 | 31.66781 | 118.80564 | 33964 ft | 447 kts | 276° |
| 2026-05-01 12:28 | 31.67582 | 118.69681 | 33960 ft | 446 kts | 276° |
| 2026-05-01 12:29 | 31.68374 | 118.58849 | 33962 ft | 445 kts | 276° |
| 2026-05-01 12:29 | 31.69157 | 118.47997 | 33951 ft | 445 kts | 276° |
| 2026-05-01 12:30 | 31.69935 | 118.37099 | 33952 ft | 445 kts | 276° |
| 2026-05-01 12:31 | 31.70445 | 118.29882 | 33946 ft | 445 kts | 275° |
| 2026-05-01 12:31 | 31.70953 | 118.22628 | 33944 ft | 445 kts | 275° |
| 2026-05-01 12:32 | 31.71436 | 118.15399 | 33937 ft | 445 kts | 273° |
| 2026-05-01 12:32 | 31.70634 | 118.04529 | 33915 ft | 448 kts | 260° |
| 2026-05-01 12:33 | 31.69160 | 117.97410 | 33935 ft | 448 kts | 258° |
| 2026-05-01 12:33 | 31.67650 | 117.90289 | 33938 ft | 448 kts | 258° |
| 2026-05-01 12:34 | 31.66171 | 117.83210 | 33928 ft | 449 kts | 259° |
| 2026-05-01 12:34 | 31.64683 | 117.76068 | 33928 ft | 449 kts | 258° |
| 2026-05-01 12:35 | 31.63203 | 117.68976 | 33932 ft | 448 kts | 258° |
| 2026-05-01 12:35 | 31.61722 | 117.61893 | 33926 ft | 448 kts | 258° |
| 2026-05-01 12:36 | 31.60260 | 117.54785 | 33925 ft | 447 kts | 260° |
| 2026-05-01 12:36 | 31.59030 | 117.47625 | 33902 ft | 447 kts | 261° |
| 2026-05-01 12:37 | 31.57822 | 117.40500 | 33925 ft | 447 kts | 261° |
| 2026-05-01 12:37 | 31.56566 | 117.33332 | 33923 ft | 448 kts | 260° |
| 2026-05-01 12:38 | 31.55304 | 117.26205 | 33922 ft | 448 kts | 260° |
| 2026-05-01 12:38 | 31.54028 | 117.19062 | 33909 ft | 448 kts | 260° |
| 2026-05-01 12:39 | 31.52742 | 117.11885 | 33914 ft | 448 kts | 260° |
| 2026-05-01 12:39 | 31.51460 | 117.04752 | 33921 ft | 448 kts | 260° |
| 2026-05-01 12:40 | 31.50176 | 116.97623 | 33917 ft | 448 kts | 260° |
| 2026-05-01 12:40 | 31.48878 | 116.90504 | 33917 ft | 448 kts | 258° |
| 2026-05-01 12:41 | 31.46636 | 116.83687 | 33910 ft | 452 kts | 246° |
| 2026-05-01 12:41 | 31.43272 | 116.77401 | 33913 ft | 456 kts | 236° |
| 2026-05-01 12:42 | 31.39362 | 116.71541 | 33905 ft | 457 kts | 236° |
| 2026-05-01 12:42 | 31.35491 | 116.65689 | 33911 ft | 457 kts | 236° |
| 2026-05-01 12:43 | 31.31636 | 116.59802 | 33907 ft | 456 kts | 236° |
| 2026-05-01 12:43 | 31.27773 | 116.53898 | 33924 ft | 456 kts | 236° |
| 2026-05-01 12:44 | 31.23924 | 116.48019 | 33920 ft | 456 kts | 236° |
| 2026-05-01 12:45 | 31.16214 | 116.36267 | 33917 ft | 456 kts | 236° |
| 2026-05-01 12:45 | 31.12339 | 116.30375 | 33925 ft | 456 kts | 236° |
| 2026-05-01 12:46 | 31.08489 | 116.24531 | 33941 ft | 455 kts | 236° |
| 2026-05-01 12:46 | 31.04622 | 116.18692 | 33935 ft | 456 kts | 236° |
| 2026-05-01 12:47 | 31.00731 | 116.12833 | 33927 ft | 455 kts | 236° |
| 2026-05-01 12:47 | 30.96876 | 116.07032 | 33935 ft | 455 kts | 236° |
| 2026-05-01 12:48 | 30.92986 | 116.01183 | 33902 ft | 455 kts | 236° |
| 2026-05-01 12:48 | 30.89111 | 115.95364 | 33919 ft | 455 kts | 236° |
| 2026-05-01 12:49 | 30.85234 | 115.89553 | 33926 ft | 456 kts | 236° |
| 2026-05-01 12:49 | 30.81356 | 115.83688 | 33907 ft | 457 kts | 236° |
| 2026-05-01 12:50 | 30.77504 | 115.77852 | 33916 ft | 457 kts | 236° |
| 2026-05-01 12:50 | 30.73634 | 115.71998 | 33913 ft | 458 kts | 236° |
| 2026-05-01 12:51 | 30.69743 | 115.66119 | 33906 ft | 458 kts | 235° |
| 2026-05-01 12:52 | 30.63907 | 115.57321 | 33905 ft | 458 kts | 235° |
| 2026-05-01 12:52 | 30.58081 | 115.48557 | 33896 ft | 457 kts | 235° |
| 2026-05-01 12:53 | 30.52238 | 115.39784 | 33887 ft | 456 kts | 235° |
| 2026-05-01 12:54 | 30.48365 | 115.33979 | 33885 ft | 456 kts | 235° |
| 2026-05-01 12:54 | 30.45071 | 115.27826 | 33886 ft | 448 kts | 252° |
| 2026-05-01 12:54 | 30.44307 | 115.24324 | 33896 ft | 448 kts | 261° |
| 2026-05-01 12:55 | 30.44360 | 115.17133 | 33905 ft | 449 kts | 276° |
| 2026-05-01 12:55 | 30.44782 | 115.13527 | 33889 ft | 451 kts | 276° |
| 2026-05-01 12:56 | 30.45602 | 115.06305 | 33886 ft | 455 kts | 276° |
| 2026-05-01 12:56 | 30.46379 | 114.99036 | 33897 ft | 457 kts | 275° |
| 2026-05-01 12:57 | 30.47137 | 114.91688 | 33882 ft | 457 kts | 275° |
| 2026-05-01 12:57 | 30.48252 | 114.80736 | 33876 ft | 455 kts | 275° |
| 2026-05-01 12:58 | 30.48991 | 114.73442 | 33869 ft | 454 kts | 275° |
| 2026-05-01 12:59 | 30.50081 | 114.62610 | 33862 ft | 452 kts | 275° |
| 2026-05-01 12:59 | 30.51168 | 114.51721 | 33866 ft | 451 kts | 275° |
| 2026-05-01 13:00 | 30.52238 | 114.40909 | 33854 ft | 452 kts | 275° |
| 2026-05-01 13:01 | 30.53307 | 114.30007 | 33862 ft | 452 kts | 275° |
| 2026-05-01 13:02 | 30.54363 | 114.19163 | 33853 ft | 452 kts | 275° |
| 2026-05-01 13:07 | 30.39157 | 113.49956 | 33848 ft | 452 kts | 239° |
| 2026-05-01 13:07 | 30.36895 | 113.45901 | 33852 ft | 451 kts | 239° |
| 2026-05-01 13:08 | 30.34057 | 113.40821 | 33850 ft | 450 kts | 239° |
| 2026-05-01 13:08 | 30.30108 | 113.33764 | 33855 ft | 450 kts | 239° |
| 2026-05-01 13:09 | 30.27268 | 113.28697 | 33855 ft | 450 kts | 239° |
| 2026-05-01 13:09 | 30.23866 | 113.22635 | 33855 ft | 451 kts | 239° |
| 2026-05-01 13:10 | 30.20440 | 113.16525 | 33837 ft | 451 kts | 239° |
| 2026-05-01 13:10 | 30.17071 | 113.10404 | 34187 ft | 452 kts | 239° |
| 2026-05-01 13:10 | 30.15381 | 113.07323 | 34481 ft | 450 kts | 239° |
| 2026-05-01 13:11 | 30.13717 | 113.04294 | 34786 ft | 448 kts | 239° |
| 2026-05-01 13:11 | 30.12066 | 113.01292 | 35062 ft | 446 kts | 239° |
| 2026-05-01 13:11 | 30.10395 | 112.98259 | 35301 ft | 445 kts | 239° |
| 2026-05-01 13:11 | 30.08726 | 112.95234 | 35509 ft | 445 kts | 239° |
| 2026-05-01 13:12 | 30.07059 | 112.92217 | 35721 ft | 445 kts | 239° |
| 2026-05-01 13:12 | 30.05393 | 112.89204 | 36035 ft | 442 kts | 239° |
| 2026-05-01 13:12 | 30.03769 | 112.86271 | 36524 ft | 435 kts | 239° |
| 2026-05-01 13:12 | 30.02141 | 112.83333 | 36872 ft | 432 kts | 239° |
| 2026-05-01 13:13 | 30.00510 | 112.80388 | 36899 ft | 436 kts | 239° |
| 2026-05-01 13:13 | 29.97233 | 112.74477 | 37009 ft | 441 kts | 239° |
| 2026-05-01 13:13 | 29.95586 | 112.71511 | 37143 ft | 442 kts | 239° |
| 2026-05-01 13:14 | 29.93925 | 112.68522 | 37291 ft | 442 kts | 239° |
| 2026-05-01 13:14 | 29.90590 | 112.62528 | 37461 ft | 445 kts | 239° |
| 2026-05-01 13:15 | 29.87244 | 112.56523 | 37664 ft | 447 kts | 239° |
| 2026-05-01 13:15 | 29.83866 | 112.50470 | 37810 ft | 447 kts | 239° |
| 2026-05-01 13:16 | 29.80521 | 112.44484 | 37841 ft | 449 kts | 239° |
| 2026-05-01 13:16 | 29.77125 | 112.38413 | 37856 ft | 451 kts | 239° |
| 2026-05-01 13:17 | 29.70284 | 112.26245 | 37853 ft | 455 kts | 239° |
| 2026-05-01 13:18 | 29.65114 | 112.17118 | 37852 ft | 455 kts | 239° |